createdAt,value
2023-03-14T00:00:01.031Z,19.64
2023-03-14T00:02:29.025Z,19.49
2023-03-14T00:04:58.307Z,19.38
2023-03-14T00:07:26.407Z,19.69
2023-03-14T00:09:54.267Z,19.81
2023-03-14T00:12:22.072Z,20.15
2023-03-14T00:14:49.795Z,20.81
2023-03-14T00:17:17.504Z,19.46
2023-03-14T00:19:45.210Z,19.62
2023-03-14T00:22:14.291Z,19.91
2023-03-14T00:24:42.058Z,19.90
2023-03-14T00:27:09.831Z,20.23
2023-03-14T00:29:37.615Z,20.67
2023-03-14T00:32:05.782Z,20.26
2023-03-14T00:34:34.971Z,20.32
2023-03-14T00:37:02.695Z,20.14
2023-03-14T00:39:31.848Z,20.62
2023-03-14T00:41:59.612Z,19.87
2023-03-14T00:44:27.478Z,20.11
2023-03-14T00:46:55.331Z,20.20
2023-03-14T00:49:23.167Z,20.30
2023-03-14T00:51:53.381Z,20.46
2023-03-14T00:54:21.871Z,20.40
2023-03-14T00:56:51.057Z,20.15
2023-03-14T00:59:18.928Z,20.19
2023-03-14T01:01:46.761Z,19.80
2023-03-14T01:04:14.627Z,19.68
2023-03-14T01:06:42.571Z,19.71
2023-03-14T01:09:12.261Z,20.27
2023-03-14T01:11:40.040Z,19.86
2023-03-14T01:14:09.311Z,19.26
2023-03-14T01:16:37.487Z,19.15
2023-03-14T01:19:05.649Z,19.52
2023-03-14T01:21:35.065Z,18.95
2023-03-14T01:24:04.538Z,19.03
2023-03-14T01:26:34.669Z,19.64
2023-03-14T01:29:03.218Z,19.12
2023-03-14T01:31:33.021Z,19.51
2023-03-14T01:34:00.808Z,18.94
2023-03-14T01:36:30.490Z,18.89
2023-03-14T01:39:01.062Z,19.04
2023-03-14T01:41:29.214Z,19.20
2023-03-14T01:43:59.542Z,19.21
2023-03-14T01:46:34.165Z,19.28
2023-03-14T01:49:08.796Z,18.92
2023-03-14T01:51:44.471Z,19.54
2023-03-14T01:54:21.806Z,19.79
2023-03-14T01:56:54.573Z,19.51
2023-03-14T01:59:23.109Z,19.32
2023-03-14T02:01:53.806Z,19.03
2023-03-14T02:04:22.317Z,19.73
2023-03-14T02:07:00.668Z,20.14
2023-03-14T02:09:33.400Z,19.58
2023-03-14T02:12:02.306Z,20.29
2023-03-14T02:14:48.881Z,19.20
2023-03-14T02:17:50.358Z,19.79
2023-03-14T02:20:35.304Z,20.19
2023-03-14T02:23:03.345Z,20.00
2023-03-14T02:25:40.811Z,18.75
2023-03-14T02:28:10.458Z,19.01
2023-03-14T02:30:39.953Z,19.92
2023-03-14T02:33:10.323Z,19.85
2023-03-14T02:35:42.057Z,18.78
2023-03-14T02:38:19.097Z,19.39
2023-03-14T02:40:50.155Z,19.86
2023-03-14T02:43:20.101Z,20.10
2023-03-14T02:45:54.540Z,20.17
2023-03-14T02:48:27.818Z,19.30
2023-03-14T02:50:58.521Z,19.92
2023-03-14T02:53:30.068Z,20.26
2023-03-14T02:56:01.050Z,19.03
2023-03-14T02:58:31.571Z,18.53
2023-03-14T03:01:10.168Z,19.93
2023-03-14T03:03:39.486Z,20.00
2023-03-14T03:06:08.136Z,19.87
2023-03-14T03:08:35.927Z,19.91
2023-03-14T03:11:04.481Z,19.86
2023-03-14T03:13:36.194Z,18.99
2023-03-14T03:16:06.981Z,20.19
2023-03-14T03:18:36.281Z,20.41
2023-03-14T03:21:06.691Z,20.49
2023-03-14T03:23:34.478Z,20.09
2023-03-14T03:26:03.285Z,19.15
2023-03-14T03:28:31.201Z,20.18
2023-03-14T03:31:09.301Z,19.85
2023-03-14T03:33:38.403Z,19.45
2023-03-14T03:36:07.139Z,20.28
2023-03-14T03:38:37.979Z,19.88
2023-03-14T03:41:08.145Z,19.85
2023-03-14T03:43:36.730Z,19.78
2023-03-14T03:46:09.117Z,20.16
2023-03-14T03:48:37.607Z,19.42
2023-03-14T03:51:07.506Z,19.15
2023-03-14T03:53:36.809Z,18.39
2023-03-14T03:56:10.965Z,18.68
2023-03-14T03:58:39.881Z,18.53
2023-03-14T04:01:11.541Z,18.03
2023-03-14T04:03:40.267Z,18.29
2023-03-14T04:06:11.336Z,18.20
2023-03-14T04:08:42.325Z,17.87
2023-03-14T04:11:13.418Z,18.15
2023-03-14T04:13:53.689Z,18.34
2023-03-14T04:16:24.846Z,17.51
2023-03-14T04:18:56.434Z,18.38
2023-03-14T04:21:25.410Z,17.97
2023-03-14T04:23:57.342Z,18.17
2023-03-14T04:26:26.667Z,17.42
2023-03-14T04:28:55.028Z,17.13
2023-03-14T04:31:25.443Z,17.61
2023-03-14T04:33:53.550Z,17.12
2023-03-14T04:36:28.910Z,17.32
2023-03-14T04:38:58.512Z,17.08
2023-03-14T04:41:27.048Z,17.60
2023-03-14T04:43:54.881Z,17.42
2023-03-14T04:46:24.840Z,17.37
2023-03-14T04:48:52.660Z,16.81
2023-03-14T04:51:20.665Z,17.37
2023-03-14T04:53:48.559Z,17.03
2023-03-14T04:56:16.707Z,17.47
2023-03-14T04:58:45.730Z,17.48
2023-03-14T05:01:16.759Z,17.88
2023-03-14T05:04:11.843Z,17.42
2023-03-14T05:06:58.122Z,16.78
2023-03-14T05:09:37.336Z,16.61
2023-03-14T05:12:23.944Z,16.89
2023-03-14T05:15:20.589Z,16.74
2023-03-14T05:18:06.876Z,17.38
2023-03-14T05:20:57.861Z,16.67
2023-03-14T05:23:49.339Z,17.18
2023-03-14T05:26:35.602Z,16.69
2023-03-14T05:29:32.677Z,16.93
2023-03-14T05:32:38.857Z,16.69
2023-03-14T05:35:18.473Z,16.80
2023-03-14T05:38:06.052Z,17.10
2023-03-14T05:40:46.390Z,16.95
2023-03-14T05:43:21.415Z,16.62
2023-03-14T05:46:09.330Z,17.88
2023-03-14T05:48:57.465Z,17.69
2023-03-14T05:51:36.902Z,17.60
2023-03-14T05:54:44.647Z,16.64
2023-03-14T05:57:50.758Z,17.20
2023-03-14T06:00:28.340Z,17.05
2023-03-14T06:03:08.497Z,16.61
2023-03-14T06:05:41.757Z,17.22
2023-03-14T06:08:09.579Z,17.66
2023-03-14T06:10:39.151Z,17.68
2023-03-14T06:13:07.039Z,17.47
2023-03-14T06:15:36.832Z,17.65
2023-03-14T06:18:05.404Z,17.32
2023-03-14T06:20:34.252Z,17.53
2023-03-14T06:23:02.419Z,17.78
2023-03-14T06:25:32.104Z,17.99
2023-03-14T06:28:01.288Z,17.90
2023-03-14T06:30:29.857Z,18.19
2023-03-14T06:32:58.779Z,18.48
2023-03-14T06:35:28.387Z,18.48
2023-03-14T06:37:56.383Z,18.82
2023-03-14T06:40:24.321Z,18.58
2023-03-14T06:43:07.366Z,18.34
2023-03-14T06:45:37.494Z,18.15
2023-03-14T06:48:05.950Z,18.81
2023-03-14T06:50:46.551Z,19.20
2023-03-14T06:53:14.845Z,19.25
2023-03-14T06:55:46.660Z,18.99
2023-03-14T06:58:17.849Z,18.71
2023-03-14T07:00:47.664Z,19.10
2023-03-14T07:03:22.099Z,19.26
2023-03-14T07:05:52.791Z,19.45
2023-03-14T07:08:20.778Z,19.11
2023-03-14T07:10:48.937Z,18.59
2023-03-14T07:13:19.990Z,19.18
2023-03-14T07:15:56.759Z,18.79
2023-03-14T07:18:25.140Z,18.42
2023-03-14T07:20:53.072Z,18.34
2023-03-14T07:23:21.288Z,18.71
2023-03-14T07:25:51.725Z,19.23
2023-03-14T07:28:24.058Z,19.11
2023-03-14T07:30:58.245Z,18.24
2023-03-14T07:33:31.468Z,18.71
2023-03-14T07:35:59.385Z,19.63
2023-03-14T07:38:27.760Z,18.74
2023-03-14T07:41:10.759Z,18.77
2023-03-14T07:43:46.220Z,18.87
2023-03-14T07:46:14.091Z,18.88
2023-03-14T07:48:42.037Z,19.06
2023-03-14T07:51:09.976Z,18.59
2023-03-14T07:53:38.007Z,19.50
2023-03-14T07:56:06.421Z,18.87
2023-03-14T07:58:34.909Z,19.08
2023-03-14T08:01:04.525Z,18.59
2023-03-14T08:03:32.946Z,18.87
2023-03-14T08:06:01.149Z,19.30
2023-03-14T08:08:29.031Z,18.98
2023-03-14T08:10:57.090Z,18.92
2023-03-14T08:13:26.606Z,18.53
2023-03-14T08:15:54.475Z,19.63
2023-03-14T08:18:23.647Z,19.16
2023-03-14T08:20:51.524Z,19.56
2023-03-14T08:23:19.434Z,19.84
2023-03-14T08:25:47.500Z,20.05
2023-03-14T08:28:15.845Z,20.87
2023-03-14T08:30:46.829Z,20.34
2023-03-14T08:33:16.645Z,20.10
2023-03-14T08:35:46.233Z,20.09
2023-03-14T08:38:14.169Z,20.53
2023-03-14T08:40:42.079Z,21.25
2023-03-14T08:43:09.869Z,20.23
2023-03-14T08:45:37.825Z,20.00
2023-03-14T08:48:06.408Z,19.87
2023-03-14T08:50:34.261Z,19.31
2023-03-14T08:53:03.734Z,20.05
2023-03-14T08:55:31.654Z,20.48
2023-03-14T08:57:59.494Z,19.80
2023-03-14T09:00:27.859Z,20.67
2023-03-14T09:02:55.679Z,20.77
2023-03-14T09:05:23.561Z,19.02
2023-03-14T09:07:51.469Z,19.79
2023-03-14T09:10:20.671Z,20.33
2023-03-14T09:12:48.536Z,20.31
2023-03-14T09:15:16.374Z,20.74
2023-03-14T09:17:44.916Z,19.59
2023-03-14T09:20:14.934Z,19.52
2023-03-14T09:22:42.799Z,20.10
2023-03-14T09:25:11.692Z,19.74
2023-03-14T09:27:40.804Z,19.90
2023-03-14T09:30:10.043Z,19.65
2023-03-14T09:32:37.855Z,19.99
2023-03-14T09:35:06.239Z,21.59
2023-03-14T09:37:34.049Z,21.01
2023-03-14T09:40:01.870Z,21.33
2023-03-14T09:42:29.963Z,21.85
2023-03-14T09:45:03.612Z,21.01
2023-03-14T09:47:31.784Z,22.04
2023-03-14T09:50:00.762Z,21.87
2023-03-14T09:52:33.257Z,21.66
2023-03-14T09:55:04.698Z,21.83
2023-03-14T09:57:35.746Z,20.78
2023-03-14T10:00:15.153Z,21.65
2023-03-14T10:02:47.470Z,20.58
2023-03-14T10:05:18.529Z,20.71
2023-03-14T10:07:46.806Z,20.67
2023-03-14T10:10:19.497Z,21.15
2023-03-14T10:12:48.950Z,22.30
2023-03-14T10:15:33.401Z,21.16
2023-03-14T10:18:03.058Z,22.23
2023-03-14T10:20:34.994Z,22.40
2023-03-14T10:23:05.543Z,22.10
2023-03-14T10:25:35.203Z,22.65
2023-03-14T10:28:05.239Z,21.57
2023-03-14T10:30:46.183Z,21.88
2023-03-14T10:33:23.306Z,22.30
2023-03-14T10:35:57.865Z,22.34
2023-03-14T10:38:29.031Z,21.96
2023-03-14T10:40:59.514Z,21.03
2023-03-14T10:43:32.710Z,21.11
2023-03-14T10:46:07.949Z,20.66
2023-03-14T10:48:38.376Z,21.04
2023-03-14T10:51:09.649Z,21.44
2023-03-14T10:53:45.808Z,21.88
2023-03-14T10:56:15.872Z,21.34
2023-03-14T10:58:45.615Z,21.65
2023-03-14T11:01:40.080Z,21.27
2023-03-14T11:04:22.308Z,20.83
2023-03-14T11:06:59.232Z,20.94
2023-03-14T11:09:34.304Z,21.41
2023-03-14T11:12:18.438Z,20.97
2023-03-14T11:14:53.963Z,21.07
2023-03-14T11:17:34.263Z,20.97
2023-03-14T11:20:25.839Z,20.79
2023-03-14T11:23:00.557Z,20.14
2023-03-14T11:25:39.246Z,18.28
2023-03-14T11:28:16.431Z,19.87
2023-03-14T11:30:56.765Z,15.93
2023-03-14T11:33:30.679Z,14.91
2023-03-14T11:36:07.543Z,16.42
2023-03-14T11:38:40.300Z,17.40
2023-03-14T11:41:20.233Z,15.81
2023-03-14T11:43:51.686Z,16.97
2023-03-14T11:46:27.535Z,16.94
2023-03-14T11:49:05.704Z,16.68
2023-03-14T11:51:42.730Z,16.78
2023-03-14T11:54:18.340Z,13.17
2023-03-14T11:56:52.717Z,12.65
2023-03-14T11:59:26.967Z,12.79
2023-03-14T12:02:06.799Z,14.33
2023-03-14T12:04:48.161Z,14.02
2023-03-14T12:07:25.397Z,13.26
2023-03-14T12:09:59.574Z,11.42
2023-03-14T12:12:32.214Z,11.72
2023-03-14T12:15:02.589Z,13.03
2023-03-14T12:17:38.529Z,11.90
2023-03-14T12:20:19.720Z,13.92
2023-03-14T12:22:50.143Z,13.28
2023-03-14T12:25:21.482Z,13.89
2023-03-14T12:28:18.186Z,12.20
2023-03-14T12:30:46.836Z,12.07
2023-03-14T12:33:32.161Z,12.61
2023-03-14T12:36:06.933Z,12.73
2023-03-14T12:38:53.897Z,13.44
2023-03-14T12:41:26.376Z,13.37
2023-03-14T12:43:55.164Z,13.26
2023-03-14T12:46:27.264Z,12.19
2023-03-14T12:49:08.370Z,12.65
2023-03-14T12:51:40.975Z,10.54
2023-03-14T12:54:34.049Z,12.77
2023-03-14T12:57:16.490Z,11.62
2023-03-14T12:59:54.218Z,11.78
2023-03-14T13:02:26.457Z,13.08
2023-03-14T13:05:03.468Z,11.00
2023-03-14T13:07:35.632Z,12.69
2023-03-14T13:10:20.127Z,13.20
2023-03-14T13:12:52.269Z,11.78
2023-03-14T13:15:26.276Z,13.56
2023-03-14T13:17:57.729Z,12.62
2023-03-14T13:20:31.383Z,12.74
2023-03-14T13:23:00.680Z,13.71
2023-03-14T13:25:34.937Z,12.01
2023-03-14T13:28:04.062Z,12.71
2023-03-14T13:30:41.144Z,12.68
2023-03-14T13:33:13.615Z,14.67
2023-03-14T13:35:44.764Z,14.56
2023-03-14T13:38:21.902Z,12.52
2023-03-14T13:40:52.194Z,12.26
2023-03-14T13:43:23.321Z,13.83
2023-03-14T13:45:58.207Z,14.13
2023-03-14T13:48:30.167Z,12.28
2023-03-14T13:51:02.893Z,14.29
2023-03-14T13:53:33.159Z,14.70
2023-03-14T13:56:04.454Z,13.89
2023-03-14T13:58:34.289Z,14.88
2023-03-14T14:01:06.328Z,14.90
2023-03-14T14:03:39.079Z,15.39
2023-03-14T14:06:13.166Z,14.83
2023-03-14T14:08:44.684Z,14.28
2023-03-14T14:11:26.042Z,15.10
2023-03-14T14:13:57.048Z,13.90
2023-03-14T14:16:27.846Z,12.64
2023-03-14T14:18:58.086Z,13.72
2023-03-14T14:21:26.862Z,14.32
2023-03-14T14:24:47.056Z,14.41
2023-03-14T14:27:17.767Z,14.83
2023-03-14T14:29:47.395Z,13.17
2023-03-14T14:32:16.927Z,12.52
2023-03-14T14:34:50.523Z,13.99
2023-03-14T14:37:21.900Z,12.94
2023-03-14T14:39:53.158Z,12.40
2023-03-14T14:42:24.233Z,11.86
2023-03-14T14:44:53.666Z,13.49
2023-03-14T14:47:24.763Z,11.52
2023-03-14T14:49:54.615Z,12.32
2023-03-14T14:52:28.923Z,12.38
2023-03-14T14:55:03.645Z,13.14
2023-03-14T14:57:37.445Z,13.98
2023-03-14T15:00:13.102Z,14.71
2023-03-14T15:02:46.047Z,14.66
2023-03-14T15:05:15.186Z,15.08
2023-03-14T15:07:44.144Z,13.73
2023-03-14T15:10:15.973Z,14.70
2023-03-14T15:12:43.872Z,14.21
2023-03-14T15:15:13.383Z,14.23
2023-03-14T15:17:41.530Z,14.43
2023-03-14T15:20:14.607Z,14.99
2023-03-14T15:22:42.585Z,14.56
2023-03-14T15:25:31.476Z,13.57
2023-03-14T15:28:01.295Z,14.49
2023-03-14T15:30:29.363Z,15.05
2023-03-14T15:32:57.227Z,15.23
2023-03-14T15:35:25.162Z,14.75
2023-03-14T15:37:53.020Z,15.79
2023-03-14T15:40:21.702Z,15.39
2023-03-14T15:42:49.554Z,14.75
2023-03-14T15:45:18.746Z,15.03
2023-03-14T15:47:46.790Z,15.53
2023-03-14T15:50:14.960Z,15.30
2023-03-14T15:52:42.889Z,14.37
2023-03-14T15:55:12.057Z,14.19
2023-03-14T15:57:40.009Z,14.60
2023-03-14T16:00:12.144Z,13.69
2023-03-14T16:02:42.351Z,14.09
2023-03-14T16:05:12.245Z,14.09
2023-03-14T16:07:40.631Z,14.05
2023-03-14T16:10:12.396Z,14.68
2023-03-14T16:12:40.686Z,13.91
2023-03-14T16:15:10.695Z,14.42
2023-03-14T16:17:41.187Z,14.54
2023-03-14T16:20:12.004Z,13.78
2023-03-14T16:22:40.103Z,13.19
2023-03-14T16:25:09.836Z,14.66
2023-03-14T16:27:37.832Z,13.92
2023-03-14T16:30:07.014Z,13.67
2023-03-14T16:32:35.914Z,13.87
2023-03-14T16:35:04.395Z,14.02
2023-03-14T16:37:33.556Z,14.20
2023-03-14T16:43:14.542Z,14.44
2023-03-14T16:45:38.763Z,14.89
2023-03-14T16:48:07.356Z,13.29
2023-03-14T16:50:35.242Z,13.96
2023-03-14T16:53:05.212Z,14.61
2023-03-14T16:55:34.249Z,14.49
2023-03-14T16:58:02.591Z,15.01
2023-03-14T17:00:30.463Z,16.01
2023-03-14T17:02:58.265Z,15.08
2023-03-14T17:05:26.723Z,13.67
2023-03-14T17:07:54.651Z,13.26
2023-03-14T17:10:24.660Z,12.94
2023-03-14T17:12:52.470Z,14.29
2023-03-14T17:15:20.266Z,14.09
2023-03-14T17:17:48.738Z,13.58
2023-03-14T17:20:17.407Z,13.47
2023-03-14T17:22:45.190Z,14.21
2023-03-14T17:25:13.039Z,14.06
2023-03-14T17:27:43.912Z,13.69
2023-03-14T17:30:13.908Z,13.36
2023-03-14T17:32:41.819Z,13.96
2023-03-14T17:35:09.598Z,12.99
2023-03-14T17:37:37.334Z,13.81
2023-03-14T17:40:06.158Z,12.83
2023-03-14T17:42:34.139Z,13.52
2023-03-14T17:45:03.341Z,13.05
2023-03-14T17:47:31.085Z,13.03
2023-03-14T17:49:58.916Z,12.82
2023-03-14T17:52:26.633Z,12.91
2023-03-14T17:54:54.621Z,12.16
2023-03-14T17:57:25.461Z,12.97
2023-03-14T17:59:54.076Z,13.20
2023-03-14T18:02:24.528Z,12.96
2023-03-14T18:04:53.912Z,13.03
2023-03-14T18:07:22.677Z,13.27
2023-03-14T18:09:51.444Z,13.40
2023-03-14T18:12:19.502Z,12.89
2023-03-14T18:14:47.398Z,13.27
2023-03-14T18:17:15.403Z,12.67
2023-03-14T18:19:44.631Z,12.90
2023-03-14T18:22:18.350Z,13.30
2023-03-14T18:24:50.201Z,13.54
2023-03-14T18:27:30.683Z,12.91
2023-03-14T18:29:58.611Z,13.42
2023-03-14T18:32:26.501Z,13.94
2023-03-14T18:34:58.932Z,13.85
2023-03-14T18:37:26.849Z,14.00
2023-03-14T18:40:01.351Z,13.32
2023-03-14T18:42:31.887Z,12.19
2023-03-14T18:45:00.049Z,12.93
2023-03-14T18:47:31.817Z,12.95
2023-03-14T18:50:01.351Z,12.78
2023-03-14T18:52:30.110Z,12.76
2023-03-14T18:54:58.920Z,12.88
2023-03-14T18:57:26.906Z,13.31
2023-03-14T18:59:59.679Z,13.12
2023-03-14T19:02:27.713Z,12.38
2023-03-14T19:04:55.771Z,12.53
2023-03-14T19:07:25.036Z,12.68
2023-03-14T19:09:52.776Z,12.87
2023-03-14T19:12:20.687Z,13.36
2023-03-14T19:14:48.460Z,13.32
2023-03-14T19:17:16.278Z,12.38
2023-03-14T19:19:44.125Z,12.96
2023-03-14T19:22:11.910Z,13.00
2023-03-14T19:24:41.731Z,13.20
2023-03-14T19:27:09.518Z,13.24
2023-03-14T19:29:42.097Z,12.66
2023-03-14T19:32:10.061Z,12.43
2023-03-14T19:34:37.904Z,12.14
2023-03-14T19:37:05.698Z,12.50
2023-03-14T19:39:33.457Z,12.75
2023-03-14T19:42:02.524Z,12.85
2023-03-14T19:44:30.343Z,12.79
2023-03-14T19:46:58.099Z,13.27
2023-03-14T19:49:26.032Z,11.75
2023-03-14T19:51:53.830Z,12.62
2023-03-14T19:54:23.256Z,12.91
2023-03-14T19:56:51.424Z,12.35
2023-03-14T19:59:30.736Z,12.47
2023-03-14T20:02:00.918Z,12.38
2023-03-14T20:04:28.769Z,11.94
2023-03-14T20:06:56.632Z,12.37
2023-03-14T20:09:24.439Z,11.78
2023-03-14T20:11:54.584Z,12.42
2023-03-14T20:14:24.352Z,12.36
2023-03-14T20:16:55.358Z,12.10
2023-03-14T20:19:23.309Z,12.30
2023-03-14T20:21:53.766Z,11.88
2023-03-14T20:24:21.804Z,12.43
2023-03-14T20:26:49.627Z,12.76
2023-03-14T20:29:20.461Z,11.38
2023-03-14T20:31:49.667Z,12.77
2023-03-14T20:34:17.446Z,12.13
2023-03-14T20:36:48.741Z,11.81
2023-03-14T20:39:16.538Z,12.39
2023-03-14T20:41:44.244Z,11.99
2023-03-14T20:44:13.453Z,12.37
2023-03-14T20:46:41.811Z,11.41
2023-03-14T20:49:11.361Z,12.42
2023-03-14T20:51:39.053Z,11.93
2023-03-14T20:54:08.878Z,12.66
2023-03-14T20:56:36.653Z,12.62
2023-03-14T20:59:04.984Z,12.52
2023-03-14T21:01:33.066Z,12.51
2023-03-14T21:04:00.992Z,11.64
2023-03-14T21:06:32.529Z,11.76
2023-03-14T21:09:05.481Z,12.27
2023-03-14T21:11:36.329Z,12.46
2023-03-14T21:14:04.528Z,12.35
2023-03-14T21:16:32.453Z,12.21
2023-03-14T21:19:01.018Z,11.73
2023-03-14T21:21:30.898Z,12.38
2023-03-14T21:23:58.768Z,12.33
2023-03-14T21:26:26.674Z,12.58
2023-03-14T21:28:54.517Z,12.49
2023-03-14T21:31:22.357Z,12.46
2023-03-14T21:33:50.438Z,12.30
2023-03-14T21:36:19.437Z,11.49
2023-03-14T21:38:48.735Z,11.74
2023-03-14T21:41:16.526Z,11.84
2023-03-14T21:43:45.730Z,11.83
2023-03-14T21:46:14.152Z,11.80
2023-03-14T21:48:41.979Z,12.11
2023-03-14T21:51:10.622Z,11.88
2023-03-14T21:53:38.953Z,11.72
2023-03-14T21:56:08.497Z,11.94
2023-03-14T21:58:36.501Z,11.77
2023-03-14T22:01:06.720Z,12.44
2023-03-14T22:03:35.656Z,12.06
2023-03-14T22:06:03.900Z,11.49
2023-03-14T22:08:31.695Z,11.75
2023-03-14T22:10:59.556Z,11.72
2023-03-14T22:13:28.722Z,11.87
2023-03-14T22:15:56.484Z,12.05
2023-03-14T22:18:25.292Z,11.92
2023-03-14T22:20:53.145Z,11.72
2023-03-14T22:23:20.928Z,12.11
2023-03-14T22:25:50.308Z,11.60
2023-03-14T22:28:18.783Z,11.98
2023-03-14T22:30:49.678Z,11.93
2023-03-14T22:33:18.955Z,11.28
2023-03-14T22:35:49.029Z,12.03
2023-03-14T22:38:16.837Z,11.93
2023-03-14T22:40:44.701Z,11.49
2023-03-14T22:43:12.516Z,11.71
2023-03-14T22:45:40.384Z,11.68
2023-03-14T22:48:09.631Z,11.53
2023-03-14T22:50:38.990Z,12.27
2023-03-14T22:53:06.725Z,12.10
2023-03-14T22:55:34.509Z,11.83
2023-03-14T22:58:02.708Z,12.27
2023-03-14T23:00:31.818Z,11.83
2023-03-14T23:02:59.680Z,11.37
2023-03-14T23:05:28.843Z,11.79
2023-03-14T23:07:56.709Z,11.80
2023-03-14T23:10:24.684Z,11.73
2023-03-14T23:12:57.356Z,11.21
2023-03-14T23:15:25.256Z,11.96
2023-03-14T23:17:53.434Z,11.73
2023-03-14T23:20:21.328Z,11.76
2023-03-14T23:22:50.544Z,11.59
2023-03-14T23:25:19.103Z,11.50
2023-03-14T23:27:47.329Z,11.26
2023-03-14T23:30:16.684Z,11.25
2023-03-14T23:32:44.721Z,10.76
2023-03-14T23:35:13.602Z,10.95
2023-03-14T23:37:41.649Z,11.24
2023-03-14T23:40:12.373Z,10.08
2023-03-14T23:42:40.328Z,11.00
2023-03-14T23:45:09.050Z,11.07
2023-03-14T23:47:36.886Z,10.68
2023-03-14T23:50:04.887Z,8.66
2023-03-14T23:52:32.709Z,8.86
2023-03-14T23:55:00.524Z,8.77
2023-03-14T23:57:29.796Z,9.24
2023-03-14T23:59:57.751Z,10.26
